sensor_id;sensor_type;location;lat;lon;timestamp;P1;durP1;ratioP1;P2;durP2;ratioP2
75356;SDS011;63946;51.986;5.930;2023-06-04T05:37:41;3.70;;;1.90;;
75356;SDS011;63946;51.986;5.930;2023-06-04T05:40:41;5.65;;;2.20;;
75356;SDS011;63946;51.986;5.930;2023-06-04T05:43:13;6.50;;;1.95;;
75356;SDS011;63946;51.986;5.930;2023-06-04T05:45:50;6.70;;;2.25;;
75356;SDS011;63946;51.986;5.930;2023-06-04T05:48:37;4.72;;;1.95;;
75356;SDS011;63946;51.986;5.930;2023-06-04T05:51:09;3.47;;;1.90;;
75356;SDS011;63946;51.986;5.930;2023-06-04T05:53:51;5.43;;;2.05;;
75356;SDS011;63946;51.986;5.930;2023-06-04T05:56:22;4.63;;;1.63;;
75356;SDS011;63946;51.986;5.930;2023-06-04T05:59:05;4.28;;;1.98;;
75356;SDS011;63946;51.986;5.930;2023-06-04T06:01:36;3.45;;;1.80;;
75356;SDS011;63946;51.986;5.930;2023-06-04T06:04:10;4.00;;;1.42;;
75356;SDS011;63946;51.986;5.930;2023-06-04T06:06:45;4.15;;;1.98;;
75356;SDS011;63946;51.986;5.930;2023-06-04T06:09:19;6.25;;;1.92;;
75356;SDS011;63946;51.986;5.930;2023-06-04T06:12:12;5.60;;;1.80;;
75356;SDS011;63946;51.986;5.930;2023-06-04T06:14:45;6.47;;;1.67;;
75356;SDS011;63946;51.986;5.930;2023-06-04T06:17:23;4.32;;;1.90;;
75356;SDS011;63946;51.986;5.930;2023-06-04T06:22:24;3.00;;;1.95;;
75356;SDS011;63946;51.986;5.930;2023-06-04T06:24:57;3.80;;;1.92;;
75356;SDS011;63946;51.986;5.930;2023-06-04T06:27:31;5.78;;;2.30;;
75356;SDS011;63946;51.986;5.930;2023-06-04T06:30:02;4.50;;;2.03;;
75356;SDS011;63946;51.986;5.930;2023-06-04T06:32:34;4.03;;;1.92;;
75356;SDS011;63946;51.986;5.930;2023-06-04T06:35:09;4.20;;;2.03;;
75356;SDS011;63946;51.986;5.930;2023-06-04T06:37:39;3.05;;;1.63;;
75356;SDS011;63946;51.986;5.930;2023-06-04T06:40:11;4.63;;;2.05;;
75356;SDS011;63946;51.986;5.930;2023-06-04T06:42:40;4.00;;;2.13;;
75356;SDS011;63946;51.986;5.930;2023-06-04T06:45:15;3.83;;;1.70;;
75356;SDS011;63946;51.986;5.930;2023-06-04T06:47:49;4.95;;;1.95;;
75356;SDS011;63946;51.986;5.930;2023-06-04T06:50:24;5.00;;;2.55;;
75356;SDS011;63946;51.986;5.930;2023-06-04T06:53:13;4.05;;;1.50;;
75356;SDS011;63946;51.986;5.930;2023-06-04T06:55:51;3.03;;;1.73;;
75356;SDS011;63946;51.986;5.930;2023-06-04T06:58:30;6.72;;;2.20;;
75356;SDS011;63946;51.986;5.930;2023-06-04T07:01:11;6.10;;;2.33;;
75356;SDS011;63946;51.986;5.930;2023-06-04T07:03:55;4.22;;;1.80;;
75356;SDS011;63946;51.986;5.930;2023-06-04T07:06:35;3.78;;;2.13;;
75356;SDS011;63946;51.986;5.930;2023-06-04T07:09:13;4.00;;;2.20;;
75356;SDS011;63946;51.986;5.930;2023-06-04T07:11:43;3.55;;;1.83;;
75356;SDS011;63946;51.986;5.930;2023-06-04T07:14:20;3.08;;;1.80;;
75356;SDS011;63946;51.986;5.930;2023-06-04T07:17:22;3.58;;;1.80;;
75356;SDS011;63946;51.986;5.930;2023-06-04T07:19:59;4.75;;;2.03;;
75356;SDS011;63946;51.986;5.930;2023-06-04T07:22:40;4.22;;;1.85;;
75356;SDS011;63946;51.986;5.930;2023-06-04T07:25:19;3.28;;;1.92;;
75356;SDS011;63946;51.986;5.930;2023-06-04T07:27:54;5.32;;;1.55;;
75356;SDS011;63946;51.986;5.930;2023-06-04T07:30:39;3.95;;;2.28;;
75356;SDS011;63946;51.986;5.930;2023-06-04T07:33:13;5.50;;;2.25;;
75356;SDS011;63946;51.986;5.930;2023-06-04T07:36:18;4.65;;;1.88;;
75356;SDS011;63946;51.986;5.930;2023-06-04T07:38:48;6.03;;;1.85;;
75356;SDS011;63946;51.986;5.930;2023-06-04T07:41:22;4.05;;;1.67;;
75356;SDS011;63946;51.986;5.930;2023-06-04T07:44:08;2.95;;;1.55;;
75356;SDS011;63946;51.986;5.930;2023-06-04T07:46:40;3.85;;;1.60;;
75356;SDS011;63946;51.986;5.930;2023-06-04T07:49:15;3.28;;;1.42;;
75356;SDS011;63946;51.986;5.930;2023-06-04T07:51:51;3.25;;;1.42;;
75356;SDS011;63946;51.986;5.930;2023-06-04T07:54:34;3.65;;;1.83;;
75356;SDS011;63946;51.986;5.930;2023-06-04T07:57:07;3.15;;;1.50;;
75356;SDS011;63946;51.986;5.930;2023-06-04T07:59:39;3.10;;;1.75;;
75356;SDS011;63946;51.986;5.930;2023-06-04T08:02:14;3.22;;;1.60;;
75356;SDS011;63946;51.986;5.930;2023-06-04T08:04:43;3.72;;;1.45;;
75356;SDS011;63946;51.986;5.930;2023-06-04T08:07:16;5.93;;;1.63;;
75356;SDS011;63946;51.986;5.930;2023-06-04T08:09:48;3.55;;;1.30;;
75356;SDS011;63946;51.986;5.930;2023-06-04T08:12:25;2.95;;;1.40;;
75356;SDS011;63946;51.986;5.930;2023-06-04T08:14:54;2.03;;;1.10;;
75356;SDS011;63946;51.986;5.930;2023-06-04T08:17:25;3.53;;;1.33;;
75356;SDS011;63946;51.986;5.930;2023-06-04T08:20:06;4.88;;;1.23;;
75356;SDS011;63946;51.986;5.930;2023-06-04T08:22:44;3.22;;;1.30;;
75356;SDS011;63946;51.986;5.930;2023-06-04T08:25:13;6.07;;;1.30;;
75356;SDS011;63946;51.986;5.930;2023-06-04T08:27:42;2.75;;;1.50;;
75356;SDS011;63946;51.986;5.930;2023-06-04T08:30:11;3.05;;;1.20;;
75356;SDS011;63946;51.986;5.930;2023-06-04T08:32:59;3.17;;;1.42;;
75356;SDS011;63946;51.986;5.930;2023-06-04T08:35:43;2.40;;;1.20;;
75356;SDS011;63946;51.986;5.930;2023-06-04T08:38:14;3.10;;;1.90;;
75356;SDS011;63946;51.986;5.930;2023-06-04T08:40:43;4.80;;;1.17;;
75356;SDS011;63946;51.986;5.930;2023-06-04T08:43:12;4.75;;;1.52;;
75356;SDS011;63946;51.986;5.930;2023-06-04T08:45:52;3.70;;;1.50;;
75356;SDS011;63946;51.986;5.930;2023-06-04T08:48:31;2.70;;;1.15;;
75356;SDS011;63946;51.986;5.930;2023-06-04T08:51:02;3.70;;;1.48;;
75356;SDS011;63946;51.986;5.930;2023-06-04T08:53:36;1.40;;;0.95;;
75356;SDS011;63946;51.986;5.930;2023-06-04T08:56:16;3.72;;;1.23;;
75356;SDS011;63946;51.986;5.930;2023-06-04T08:58:56;2.67;;;1.10;;
75356;SDS011;63946;51.986;5.930;2023-06-04T09:01:31;3.20;;;1.40;;
75356;SDS011;63946;51.986;5.930;2023-06-04T09:04:06;2.40;;;1.30;;
75356;SDS011;63946;51.986;5.930;2023-06-04T09:06:42;2.65;;;1.52;;
75356;SDS011;63946;51.986;5.930;2023-06-04T09:09:11;1.85;;;1.20;;
75356;SDS011;63946;51.986;5.930;2023-06-04T09:11:55;3.47;;;1.10;;
75356;SDS011;63946;51.986;5.930;2023-06-04T09:14:33;4.32;;;1.55;;
75356;SDS011;63946;51.986;5.930;2023-06-04T09:17:23;1.95;;;1.30;;
75356;SDS011;63946;51.986;5.930;2023-06-04T09:19:53;2.78;;;1.40;;
75356;SDS011;63946;51.986;5.930;2023-06-04T09:22:34;4.00;;;1.42;;
75356;SDS011;63946;51.986;5.930;2023-06-04T09:25:07;2.03;;;1.10;;
75356;SDS011;63946;51.986;5.930;2023-06-04T09:27:51;3.65;;;1.25;;
75356;SDS011;63946;51.986;5.930;2023-06-04T09:30:25;2.10;;;1.20;;
75356;SDS011;63946;51.986;5.930;2023-06-04T09:33:08;2.05;;;0.98;;
75356;SDS011;63946;51.986;5.930;2023-06-04T09:35:37;1.55;;;1.05;;
75356;SDS011;63946;51.986;5.930;2023-06-04T09:38:12;3.35;;;1.20;;
75356;SDS011;63946;51.986;5.930;2023-06-04T09:40:48;1.98;;;1.00;;
75356;SDS011;63946;51.986;5.930;2023-06-04T09:43:23;2.67;;;1.00;;
75356;SDS011;63946;51.986;5.930;2023-06-04T09:45:52;2.30;;;1.08;;
75356;SDS011;63946;51.986;5.930;2023-06-04T09:48:25;3.40;;;1.33;;
75356;SDS011;63946;51.986;5.930;2023-06-04T09:51:05;3.47;;;1.13;;
75356;SDS011;63946;51.986;5.930;2023-06-04T09:53:57;1.77;;;1.10;;
75356;SDS011;63946;51.986;5.930;2023-06-04T09:56:43;3.03;;;0.93;;
75356;SDS011;63946;51.986;5.930;2023-06-04T09:59:15;2.63;;;1.02;;
75356;SDS011;63946;51.986;5.930;2023-06-04T10:01:45;3.28;;;1.10;;
75356;SDS011;63946;51.986;5.930;2023-06-04T10:04:29;2.33;;;1.38;;
75356;SDS011;63946;51.986;5.930;2023-06-04T10:06:59;3.53;;;1.10;;
75356;SDS011;63946;51.986;5.930;2023-06-04T10:09:35;4.63;;;1.33;;
75356;SDS011;63946;51.986;5.930;2023-06-04T10:12:14;4.03;;;1.33;;
75356;SDS011;63946;51.986;5.930;2023-06-04T10:18:03;3.10;;;1.30;;
75356;SDS011;63946;51.986;5.930;2023-06-04T10:20:37;5.15;;;1.45;;
75356;SDS011;63946;51.986;5.930;2023-06-04T10:25:40;2.53;;;1.00;;
75356;SDS011;63946;51.986;5.930;2023-06-04T10:28:15;2.90;;;1.40;;
75356;SDS011;63946;51.986;5.930;2023-06-04T10:31:13;2.20;;;1.10;;
75356;SDS011;63946;51.986;5.930;2023-06-04T10:33:52;1.95;;;1.20;;
75356;SDS011;63946;51.986;5.930;2023-06-04T10:36:43;4.65;;;1.67;;
75356;SDS011;63946;51.986;5.930;2023-06-04T10:39:29;4.03;;;1.33;;
75356;SDS011;63946;51.986;5.930;2023-06-04T10:42:01;3.10;;;1.30;;
75356;SDS011;63946;51.986;5.930;2023-06-04T10:44:43;1.90;;;1.08;;
75356;SDS011;63946;51.986;5.930;2023-06-04T10:49:53;2.72;;;1.13;;
75356;SDS011;63946;51.986;5.930;2023-06-04T10:52:32;2.55;;;1.23;;
75356;SDS011;63946;51.986;5.930;2023-06-04T10:55:20;4.50;;;1.25;;
75356;SDS011;63946;51.986;5.930;2023-06-04T10:57:56;2.60;;;1.08;;
75356;SDS011;63946;51.986;5.930;2023-06-04T11:00:40;6.70;;;1.40;;
75356;SDS011;63946;51.986;5.930;2023-06-04T11:03:46;2.53;;;1.23;;
75356;SDS011;63946;51.986;5.930;2023-06-04T11:06:21;1.85;;;1.17;;
75356;SDS011;63946;51.986;5.930;2023-06-04T11:09:04;2.00;;;1.23;;
75356;SDS011;63946;51.986;5.930;2023-06-04T11:12:01;3.97;;;1.20;;
75356;SDS011;63946;51.986;5.930;2023-06-04T11:14:57;1.40;;;1.10;;
75356;SDS011;63946;51.986;5.930;2023-06-04T11:18:26;5.47;;;0.93;;
75356;SDS011;63946;51.986;5.930;2023-06-04T11:21:13;1.63;;;0.93;;
75356;SDS011;63946;51.986;5.930;2023-06-04T11:24:15;1.50;;;1.30;;
75356;SDS011;63946;51.986;5.930;2023-06-04T11:26:54;1.67;;;1.10;;
75356;SDS011;63946;51.986;5.930;2023-06-04T11:33:20;2.92;;;1.25;;
75356;SDS011;63946;51.986;5.930;2023-06-04T11:36:08;3.55;;;1.25;;
75356;SDS011;63946;51.986;5.930;2023-06-04T11:39:34;1.88;;;1.17;;
75356;SDS011;63946;51.986;5.930;2023-06-04T11:42:18;1.90;;;1.13;;
75356;SDS011;63946;51.986;5.930;2023-06-04T11:45:24;1.55;;;1.00;;
75356;SDS011;63946;51.986;5.930;2023-06-04T11:54:45;3.47;;;1.23;;
75356;SDS011;63946;51.986;5.930;2023-06-04T11:57:40;2.15;;;1.13;;
75356;SDS011;63946;51.986;5.930;2023-06-04T12:00:27;1.83;;;1.17;;
75356;SDS011;63946;51.986;5.930;2023-06-04T12:03:01;1.70;;;1.02;;
75356;SDS011;63946;51.986;5.930;2023-06-04T12:05:49;2.58;;;1.20;;
75356;SDS011;63946;51.986;5.930;2023-06-04T12:08:53;2.30;;;1.15;;
75356;SDS011;63946;51.986;5.930;2023-06-04T12:11:33;2.95;;;1.13;;
75356;SDS011;63946;51.986;5.930;2023-06-04T12:14:23;4.07;;;1.50;;
75356;SDS011;63946;51.986;5.930;2023-06-04T12:23:04;2.17;;;1.00;;
75356;SDS011;63946;51.986;5.930;2023-06-04T12:25:49;2.78;;;1.27;;
75356;SDS011;63946;51.986;5.930;2023-06-04T12:29:35;1.95;;;1.50;;
75356;SDS011;63946;51.986;5.930;2023-06-04T12:32:13;2.58;;;1.38;;
75356;SDS011;63946;51.986;5.930;2023-06-04T12:35:12;3.08;;;1.38;;
75356;SDS011;63946;51.986;5.930;2023-06-04T12:41:23;4.03;;;1.50;;
75356;SDS011;63946;51.986;5.930;2023-06-04T12:44:01;5.55;;;1.50;;
75356;SDS011;63946;51.986;5.930;2023-06-04T12:46:50;4.82;;;1.70;;
75356;SDS011;63946;51.986;5.930;2023-06-04T12:50:01;2.72;;;1.42;;
75356;SDS011;63946;51.986;5.930;2023-06-04T12:52:33;1.63;;;1.17;;
75356;SDS011;63946;51.986;5.930;2023-06-04T13:00:46;2.08;;;1.52;;
75356;SDS011;63946;51.986;5.930;2023-06-04T13:03:29;1.48;;;1.35;;
75356;SDS011;63946;51.986;5.930;2023-06-04T13:06:04;2.20;;;1.40;;
75356;SDS011;63946;51.986;5.930;2023-06-04T13:08:48;1.80;;;1.10;;
75356;SDS011;63946;51.986;5.930;2023-06-04T13:11:20;3.65;;;1.42;;
75356;SDS011;63946;51.986;5.930;2023-06-04T13:13:53;1.85;;;1.50;;
75356;SDS011;63946;51.986;5.930;2023-06-04T13:16:25;1.90;;;1.40;;
75356;SDS011;63946;51.986;5.930;2023-06-04T13:19:08;2.38;;;1.25;;
75356;SDS011;63946;51.986;5.930;2023-06-04T13:21:48;1.85;;;1.23;;
75356;SDS011;63946;51.986;5.930;2023-06-04T13:24:26;1.60;;;1.50;;
75356;SDS011;63946;51.986;5.930;2023-06-04T13:26:56;2.45;;;1.20;;
75356;SDS011;63946;51.986;5.930;2023-06-04T13:29:35;5.03;;;1.35;;
75356;SDS011;63946;51.986;5.930;2023-06-04T13:32:12;8.32;;;2.08;;
75356;SDS011;63946;51.986;5.930;2023-06-04T13:34:49;2.72;;;1.40;;
75356;SDS011;63946;51.986;5.930;2023-06-04T13:37:22;2.50;;;1.77;;
75356;SDS011;63946;51.986;5.930;2023-06-04T13:39:51;2.70;;;1.40;;
75356;SDS011;63946;51.986;5.930;2023-06-04T13:42:24;5.03;;;1.67;;
75356;SDS011;63946;51.986;5.930;2023-06-04T13:44:58;2.83;;;1.33;;
75356;SDS011;63946;51.986;5.930;2023-06-04T13:47:27;2.38;;;1.25;;
75356;SDS011;63946;51.986;5.930;2023-06-04T13:49:57;2.13;;;1.33;;
75356;SDS011;63946;51.986;5.930;2023-06-04T13:52:30;3.05;;;1.50;;
75356;SDS011;63946;51.986;5.930;2023-06-04T13:54:59;1.90;;;1.30;;
75356;SDS011;63946;51.986;5.930;2023-06-04T13:57:32;2.65;;;1.45;;
75356;SDS011;63946;51.986;5.930;2023-06-04T14:00:02;2.17;;;1.48;;
75356;SDS011;63946;51.986;5.930;2023-06-04T14:02:38;3.20;;;1.73;;
75356;SDS011;63946;51.986;5.930;2023-06-04T14:05:15;2.38;;;1.52;;
75356;SDS011;63946;51.986;5.930;2023-06-04T14:07:46;4.28;;;1.45;;
75356;SDS011;63946;51.986;5.930;2023-06-04T14:10:28;1.95;;;1.33;;
75356;SDS011;63946;51.986;5.930;2023-06-04T14:13:18;2.53;;;1.30;;
75356;SDS011;63946;51.986;5.930;2023-06-04T14:15:58;4.32;;;1.70;;
75356;SDS011;63946;51.986;5.930;2023-06-04T14:18:47;2.45;;;1.42;;
75356;SDS011;63946;51.986;5.930;2023-06-04T14:21:19;2.72;;;1.40;;
75356;SDS011;63946;51.986;5.930;2023-06-04T14:24:05;2.70;;;1.80;;
75356;SDS011;63946;51.986;5.930;2023-06-04T14:26:38;2.25;;;1.33;;
75356;SDS011;63946;51.986;5.930;2023-06-04T14:29:07;2.92;;;1.52;;
75356;SDS011;63946;51.986;5.930;2023-06-04T14:31:50;2.25;;;1.50;;
75356;SDS011;63946;51.986;5.930;2023-06-04T14:34:29;3.17;;;1.40;;
75356;SDS011;63946;51.986;5.930;2023-06-04T14:37:00;2.35;;;1.40;;
75356;SDS011;63946;51.986;5.930;2023-06-04T14:39:45;3.38;;;1.42;;
75356;SDS011;63946;51.986;5.930;2023-06-04T14:42:16;2.50;;;1.38;;
75356;SDS011;63946;51.986;5.930;2023-06-04T14:44:47;2.20;;;1.58;;
75356;SDS011;63946;51.986;5.930;2023-06-04T14:47:25;2.63;;;1.20;;
75356;SDS011;63946;51.986;5.930;2023-06-04T14:50:01;3.08;;;1.45;;
75356;SDS011;63946;51.986;5.930;2023-06-04T14:52:31;3.22;;;1.33;;
75356;SDS011;63946;51.986;5.930;2023-06-04T14:55:14;2.17;;;1.63;;
75356;SDS011;63946;51.986;5.930;2023-06-04T14:57:46;4.05;;;1.50;;
75356;SDS011;63946;51.986;5.930;2023-06-04T15:00:33;2.25;;;1.40;;
75356;SDS011;63946;51.986;5.930;2023-06-04T15:03:05;2.42;;;1.20;;
75356;SDS011;63946;51.986;5.930;2023-06-04T15:05:35;2.08;;;1.55;;
75356;SDS011;63946;51.986;5.930;2023-06-04T15:08:06;4.03;;;1.70;;
75356;SDS011;63946;51.986;5.930;2023-06-04T15:10:38;1.52;;;1.27;;
75356;SDS011;63946;51.986;5.930;2023-06-04T15:13:14;2.40;;;1.38;;
75356;SDS011;63946;51.986;5.930;2023-06-04T15:15:58;2.92;;;1.77;;
75356;SDS011;63946;51.986;5.930;2023-06-04T15:18:30;3.35;;;1.55;;
75356;SDS011;63946;51.986;5.930;2023-06-04T15:21:01;3.35;;;1.70;;
75356;SDS011;63946;51.986;5.930;2023-06-04T15:23:35;2.92;;;1.52;;
75356;SDS011;63946;51.986;5.930;2023-06-04T15:26:16;3.13;;;1.67;;
75356;SDS011;63946;51.986;5.930;2023-06-04T15:28:53;2.03;;;1.45;;
75356;SDS011;63946;51.986;5.930;2023-06-04T15:31:27;2.33;;;1.42;;
75356;SDS011;63946;51.986;5.930;2023-06-04T15:34:14;2.40;;;1.60;;
75356;SDS011;63946;51.986;5.930;2023-06-04T15:36:49;3.83;;;1.50;;
75356;SDS011;63946;51.986;5.930;2023-06-04T15:39:26;2.40;;;1.70;;
75356;SDS011;63946;51.986;5.930;2023-06-04T15:41:57;2.10;;;1.55;;
75356;SDS011;63946;51.986;5.930;2023-06-04T15:44:44;2.53;;;1.60;;
75356;SDS011;63946;51.986;5.930;2023-06-04T15:47:16;1.58;;;1.45;;
75356;SDS011;63946;51.986;5.930;2023-06-04T15:49:46;1.77;;;1.17;;
75356;SDS011;63946;51.986;5.930;2023-06-04T15:52:15;2.67;;;1.50;;
75356;SDS011;63946;51.986;5.930;2023-06-04T15:54:58;2.50;;;1.30;;
75356;SDS011;63946;51.986;5.930;2023-06-04T15:57:28;3.97;;;1.58;;
75356;SDS011;63946;51.986;5.930;2023-06-04T15:59:59;4.95;;;1.55;;
75356;SDS011;63946;51.986;5.930;2023-06-04T16:02:31;3.08;;;1.65;;
75356;SDS011;63946;51.986;5.930;2023-06-04T16:05:02;4.63;;;1.55;;
75356;SDS011;63946;51.986;5.930;2023-06-04T16:07:31;3.35;;;1.63;;
75356;SDS011;63946;51.986;5.930;2023-06-04T16:10:05;3.90;;;1.42;;
75356;SDS011;63946;51.986;5.930;2023-06-04T16:12:37;2.00;;;1.33;;
75356;SDS011;63946;51.986;5.930;2023-06-04T16:17:39;4.78;;;1.90;;
75356;SDS011;63946;51.986;5.930;2023-06-04T16:20:15;2.72;;;1.67;;
75356;SDS011;63946;51.986;5.930;2023-06-04T16:22:49;3.90;;;1.63;;
75356;SDS011;63946;51.986;5.930;2023-06-04T16:25:20;2.50;;;1.20;;
75356;SDS011;63946;51.986;5.930;2023-06-04T16:27:52;3.42;;;1.48;;
75356;SDS011;63946;51.986;5.930;2023-06-04T16:30:22;2.20;;;1.02;;
75356;SDS011;63946;51.986;5.930;2023-06-04T16:32:53;2.00;;;1.40;;
75356;SDS011;63946;51.986;5.930;2023-06-04T16:35:28;4.03;;;1.65;;
75356;SDS011;63946;51.986;5.930;2023-06-04T16:37:57;2.90;;;1.50;;
75356;SDS011;63946;51.986;5.930;2023-06-04T16:40:30;3.42;;;1.50;;
75356;SDS011;63946;51.986;5.930;2023-06-04T16:43:04;3.03;;;1.60;;
75356;SDS011;63946;51.986;5.930;2023-06-04T16:45:36;2.97;;;1.50;;
75356;SDS011;63946;51.986;5.930;2023-06-04T16:48:06;2.78;;;1.35;;
75356;SDS011;63946;51.986;5.930;2023-06-04T16:50:35;2.70;;;1.40;;
75356;SDS011;63946;51.986;5.930;2023-06-04T16:53:19;2.78;;;1.70;;
75356;SDS011;63946;51.986;5.930;2023-06-04T16:55:58;3.05;;;1.25;;
75356;SDS011;63946;51.986;5.930;2023-06-04T16:58:36;4.68;;;1.23;;
75356;SDS011;63946;51.986;5.930;2023-06-04T17:01:13;3.42;;;1.85;;
75356;SDS011;63946;51.986;5.930;2023-06-04T17:03:43;2.00;;;1.20;;
75356;SDS011;63946;51.986;5.930;2023-06-04T17:06:16;1.88;;;1.52;;
75356;SDS011;63946;51.986;5.930;2023-06-04T17:08:51;2.78;;;1.48;;
75356;SDS011;63946;51.986;5.930;2023-06-04T17:11:20;5.70;;;2.17;;
75356;SDS011;63946;51.986;5.930;2023-06-04T17:13:54;5.13;;;1.95;;
75356;SDS011;63946;51.986;5.930;2023-06-04T17:16:25;3.30;;;1.70;;
75356;SDS011;63946;51.986;5.930;2023-06-04T17:19:05;3.78;;;1.67;;
75356;SDS011;63946;51.986;5.930;2023-06-04T17:21:35;5.65;;;1.75;;
75356;SDS011;63946;51.986;5.930;2023-06-04T17:24:06;3.22;;;2.20;;
75356;SDS011;63946;51.986;5.930;2023-06-04T17:26:38;2.50;;;1.70;;
75356;SDS011;63946;51.986;5.930;2023-06-04T17:29:07;5.07;;;1.65;;
75356;SDS011;63946;51.986;5.930;2023-06-04T17:31:41;3.75;;;1.52;;
75356;SDS011;63946;51.986;5.930;2023-06-04T17:34:14;3.38;;;1.77;;
75356;SDS011;63946;51.986;5.930;2023-06-04T17:36:44;2.22;;;1.35;;
75356;SDS011;63946;51.986;5.930;2023-06-04T17:39:26;4.68;;;1.77;;
75356;SDS011;63946;51.986;5.930;2023-06-04T17:41:58;2.88;;;1.95;;
75356;SDS011;63946;51.986;5.930;2023-06-04T17:44:33;3.00;;;1.50;;
75356;SDS011;63946;51.986;5.930;2023-06-04T17:47:04;3.38;;;1.67;;
75356;SDS011;63946;51.986;5.930;2023-06-04T17:49:34;4.65;;;1.60;;
75356;SDS011;63946;51.986;5.930;2023-06-04T17:52:04;5.15;;;2.22;;
75356;SDS011;63946;51.986;5.930;2023-06-04T17:54:35;5.13;;;1.85;;
75356;SDS011;63946;51.986;5.930;2023-06-04T17:57:04;3.75;;;1.65;;
75356;SDS011;63946;51.986;5.930;2023-06-04T17:59:36;2.72;;;1.48;;
75356;SDS011;63946;51.986;5.930;2023-06-04T18:02:08;2.17;;;1.50;;
75356;SDS011;63946;51.986;5.930;2023-06-04T18:04:44;4.45;;;2.13;;
75356;SDS011;63946;51.986;5.930;2023-06-04T18:07:15;4.07;;;1.70;;
75356;SDS011;63946;51.986;5.930;2023-06-04T18:09:50;2.78;;;1.73;;
75356;SDS011;63946;51.986;5.930;2023-06-04T18:12:39;4.05;;;1.67;;
75356;SDS011;63946;51.986;5.930;2023-06-04T18:15:08;4.03;;;1.75;;
75356;SDS011;63946;51.986;5.930;2023-06-04T18:17:41;4.72;;;1.75;;
75356;SDS011;63946;51.986;5.930;2023-06-04T18:20:17;3.85;;;1.58;;
75356;SDS011;63946;51.986;5.930;2023-06-04T18:22:52;3.03;;;1.80;;
75356;SDS011;63946;51.986;5.930;2023-06-04T18:25:23;3.08;;;1.75;;
75356;SDS011;63946;51.986;5.930;2023-06-04T18:27:53;4.40;;;1.77;;
75356;SDS011;63946;51.986;5.930;2023-06-04T18:30:25;8.85;;;1.75;;
75356;SDS011;63946;51.986;5.930;2023-06-04T18:32:54;1.98;;;1.45;;
75356;SDS011;63946;51.986;5.930;2023-06-04T18:35:29;4.70;;;1.70;;
75356;SDS011;63946;51.986;5.930;2023-06-04T18:38:02;3.47;;;1.60;;
75356;SDS011;63946;51.986;5.930;2023-06-04T18:40:32;7.95;;;1.95;;
75356;SDS011;63946;51.986;5.930;2023-06-04T18:43:02;4.35;;;1.88;;
75356;SDS011;63946;51.986;5.930;2023-06-04T18:45:31;3.90;;;1.75;;
75356;SDS011;63946;51.986;5.930;2023-06-04T18:48:00;5.45;;;2.10;;
75356;SDS011;63946;51.986;5.930;2023-06-04T18:50:29;2.47;;;1.65;;
75356;SDS011;63946;51.986;5.930;2023-06-04T18:52:58;3.80;;;1.80;;
75356;SDS011;63946;51.986;5.930;2023-06-04T18:55:30;3.65;;;1.70;;
75356;SDS011;63946;51.986;5.930;2023-06-04T18:58:07;5.10;;;1.63;;
75356;SDS011;63946;51.986;5.930;2023-06-04T19:00:37;4.13;;;1.52;;
75356;SDS011;63946;51.986;5.930;2023-06-04T19:03:08;4.30;;;1.83;;
75356;SDS011;63946;51.986;5.930;2023-06-04T19:05:38;5.28;;;1.60;;
75356;SDS011;63946;51.986;5.930;2023-06-04T19:08:07;4.13;;;1.67;;
75356;SDS011;63946;51.986;5.930;2023-06-04T19:10:37;2.97;;;1.52;;
75356;SDS011;63946;51.986;5.930;2023-06-04T19:13:11;3.15;;;1.52;;
75356;SDS011;63946;51.986;5.930;2023-06-04T19:15:43;5.68;;;1.73;;
75356;SDS011;63946;51.986;5.930;2023-06-04T19:18:16;3.55;;;1.85;;
75356;SDS011;63946;51.986;5.930;2023-06-04T19:20:51;3.63;;;1.58;;
75356;SDS011;63946;51.986;5.930;2023-06-04T19:23:23;3.55;;;1.90;;
75356;SDS011;63946;51.986;5.930;2023-06-04T19:25:52;4.82;;;1.58;;
75356;SDS011;63946;51.986;5.930;2023-06-04T19:28:21;3.15;;;1.35;;
75356;SDS011;63946;51.986;5.930;2023-06-04T19:30:52;4.03;;;1.73;;
75356;SDS011;63946;51.986;5.930;2023-06-04T19:33:23;4.45;;;2.13;;
75356;SDS011;63946;51.986;5.930;2023-06-04T19:36:02;4.47;;;1.70;;
75356;SDS011;63946;51.986;5.930;2023-06-04T19:38:31;3.20;;;1.60;;
75356;SDS011;63946;51.986;5.930;2023-06-04T19:41:02;4.20;;;1.70;;
75356;SDS011;63946;51.986;5.930;2023-06-04T19:43:33;3.65;;;1.92;;
75356;SDS011;63946;51.986;5.930;2023-06-04T19:46:02;2.97;;;1.65;;
75356;SDS011;63946;51.986;5.930;2023-06-04T19:48:41;4.28;;;1.70;;
75356;SDS011;63946;51.986;5.930;2023-06-04T19:51:11;5.20;;;2.03;;
75356;SDS011;63946;51.986;5.930;2023-06-04T19:53:44;3.85;;;1.83;;
75356;SDS011;63946;51.986;5.930;2023-06-04T19:56:13;4.45;;;2.13;;
75356;SDS011;63946;51.986;5.930;2023-06-04T19:58:46;3.40;;;1.77;;
75356;SDS011;63946;51.986;5.930;2023-06-04T20:01:18;4.47;;;1.77;;
75356;SDS011;63946;51.986;5.930;2023-06-04T20:03:47;3.58;;;1.77;;
75356;SDS011;63946;51.986;5.930;2023-06-04T20:06:19;3.85;;;1.85;;
75356;SDS011;63946;51.986;5.930;2023-06-04T20:08:49;4.93;;;2.00;;
75356;SDS011;63946;51.986;5.930;2023-06-04T20:11:22;3.33;;;1.90;;
75356;SDS011;63946;51.986;5.930;2023-06-04T20:13:54;6.28;;;2.00;;
75356;SDS011;63946;51.986;5.930;2023-06-04T20:16:31;3.53;;;2.20;;
75356;SDS011;63946;51.986;5.930;2023-06-04T20:19:00;6.05;;;1.80;;
75356;SDS011;63946;51.986;5.930;2023-06-04T20:21:29;5.82;;;2.60;;
75356;SDS011;63946;51.986;5.930;2023-06-04T20:23:59;6.50;;;1.90;;
75356;SDS011;63946;51.986;5.930;2023-06-04T20:26:30;3.03;;;2.00;;
75356;SDS011;63946;51.986;5.930;2023-06-04T20:29:10;4.50;;;2.10;;
75356;SDS011;63946;51.986;5.930;2023-06-04T20:31:43;4.93;;;2.58;;
75356;SDS011;63946;51.986;5.930;2023-06-04T20:34:12;4.45;;;2.20;;
75356;SDS011;63946;51.986;5.930;2023-06-04T20:36:46;4.10;;;1.70;;
75356;SDS011;63946;51.986;5.930;2023-06-04T20:39:18;2.30;;;1.70;;
